sensor_id;sensor_type;location;lat;lon;timestamp;P1;durP1;ratioP1;P2;durP2;ratioP2
68025;SDS011;54819;48.030;14.710;2022-12-07T00:01:38;16.00;;;7.80;;
68025;SDS011;54819;48.030;14.710;2022-12-07T00:04:08;13.50;;;7.00;;
68025;SDS011;54819;48.030;14.710;2022-12-07T00:06:39;14.20;;;7.60;;
68025;SDS011;54819;48.030;14.710;2022-12-07T00:09:13;13.50;;;7.50;;
68025;SDS011;54819;48.030;14.710;2022-12-07T00:11:43;15.60;;;8.40;;
68025;SDS011;54819;48.030;14.710;2022-12-07T00:14:13;15.00;;;8.40;;
68025;SDS011;54819;48.030;14.710;2022-12-07T00:16:41;17.60;;;8.70;;
68025;SDS011;54819;48.030;14.710;2022-12-07T00:19:11;16.00;;;8.60;;
68025;SDS011;54819;48.030;14.710;2022-12-07T00:21:39;15.80;;;8.50;;
68025;SDS011;54819;48.030;14.710;2022-12-07T00:24:06;14.40;;;8.60;;
68025;SDS011;54819;48.030;14.710;2022-12-07T00:26:36;14.00;;;8.10;;
68025;SDS011;54819;48.030;14.710;2022-12-07T00:29:07;14.90;;;8.10;;
68025;SDS011;54819;48.030;14.710;2022-12-07T00:31:39;15.70;;;8.10;;
68025;SDS011;54819;48.030;14.710;2022-12-07T00:34:09;12.30;;;7.90;;
68025;SDS011;54819;48.030;14.710;2022-12-07T00:36:39;15.20;;;8.50;;
68025;SDS011;54819;48.030;14.710;2022-12-07T00:39:06;15.70;;;7.70;;
68025;SDS011;54819;48.030;14.710;2022-12-07T00:41:33;18.50;;;9.10;;
68025;SDS011;54819;48.030;14.710;2022-12-07T00:44:00;14.60;;;8.60;;
68025;SDS011;54819;48.030;14.710;2022-12-07T00:46:27;17.80;;;9.50;;
68025;SDS011;54819;48.030;14.710;2022-12-07T00:48:55;18.00;;;8.80;;
68025;SDS011;54819;48.030;14.710;2022-12-07T00:51:24;13.70;;;7.60;;
68025;SDS011;54819;48.030;14.710;2022-12-07T00:53:52;16.80;;;8.90;;
68025;SDS011;54819;48.030;14.710;2022-12-07T00:56:25;15.30;;;8.40;;
68025;SDS011;54819;48.030;14.710;2022-12-07T00:58:56;15.20;;;7.70;;
68025;SDS011;54819;48.030;14.710;2022-12-07T01:01:34;15.80;;;7.90;;
68025;SDS011;54819;48.030;14.710;2022-12-07T01:04:03;17.10;;;7.50;;
68025;SDS011;54819;48.030;14.710;2022-12-07T01:06:31;15.70;;;8.70;;
68025;SDS011;54819;48.030;14.710;2022-12-07T01:08:58;18.00;;;8.40;;
68025;SDS011;54819;48.030;14.710;2022-12-07T01:11:28;18.20;;;9.30;;
68025;SDS011;54819;48.030;14.710;2022-12-07T01:13:58;15.60;;;9.10;;
68025;SDS011;54819;48.030;14.710;2022-12-07T01:16:27;15.60;;;8.00;;
68025;SDS011;54819;48.030;14.710;2022-12-07T01:18:57;15.50;;;8.60;;
68025;SDS011;54819;48.030;14.710;2022-12-07T01:21:31;18.20;;;8.70;;
68025;SDS011;54819;48.030;14.710;2022-12-07T01:26:33;15.90;;;7.80;;
68025;SDS011;54819;48.030;14.710;2022-12-07T01:29:00;15.70;;;7.70;;
68025;SDS011;54819;48.030;14.710;2022-12-07T01:31:28;16.60;;;8.60;;
68025;SDS011;54819;48.030;14.710;2022-12-07T01:33:57;17.00;;;8.40;;
68025;SDS011;54819;48.030;14.710;2022-12-07T01:36:29;17.80;;;9.00;;
68025;SDS011;54819;48.030;14.710;2022-12-07T01:39:00;19.60;;;9.80;;
68025;SDS011;54819;48.030;14.710;2022-12-07T01:41:33;18.90;;;9.10;;
68025;SDS011;54819;48.030;14.710;2022-12-07T01:44:21;20.60;;;9.70;;
68025;SDS011;54819;48.030;14.710;2022-12-07T01:47:00;18.10;;;9.10;;
68025;SDS011;54819;48.030;14.710;2022-12-07T01:49:44;19.40;;;9.40;;
68025;SDS011;54819;48.030;14.710;2022-12-07T01:52:30;20.30;;;9.60;;
68025;SDS011;54819;48.030;14.710;2022-12-07T01:55:10;17.60;;;8.70;;
68025;SDS011;54819;48.030;14.710;2022-12-07T01:57:44;17.00;;;8.30;;
68025;SDS011;54819;48.030;14.710;2022-12-07T02:00:15;16.20;;;8.20;;
68025;SDS011;54819;48.030;14.710;2022-12-07T02:05:24;19.40;;;9.20;;
68025;SDS011;54819;48.030;14.710;2022-12-07T02:07:55;16.50;;;8.40;;
68025;SDS011;54819;48.030;14.710;2022-12-07T02:10:26;22.90;;;11.40;;
68025;SDS011;54819;48.030;14.710;2022-12-07T02:13:14;20.70;;;10.10;;
68025;SDS011;54819;48.030;14.710;2022-12-07T02:21:32;20.50;;;8.80;;
68025;SDS011;54819;48.030;14.710;2022-12-07T02:24:31;17.40;;;8.30;;
68025;SDS011;54819;48.030;14.710;2022-12-07T02:28:01;17.70;;;9.00;;
68025;SDS011;54819;48.030;14.710;2022-12-07T02:30:38;17.30;;;8.80;;
68025;SDS011;54819;48.030;14.710;2022-12-07T02:33:18;18.10;;;9.80;;
68025;SDS011;54819;48.030;14.710;2022-12-07T02:36:00;21.20;;;10.00;;
68025;SDS011;54819;48.030;14.710;2022-12-07T02:38:51;20.80;;;9.50;;
68025;SDS011;54819;48.030;14.710;2022-12-07T02:41:33;16.90;;;9.20;;
68025;SDS011;54819;48.030;14.710;2022-12-07T02:44:07;18.70;;;9.60;;
68025;SDS011;54819;48.030;14.710;2022-12-07T02:46:44;18.40;;;9.50;;
68025;SDS011;54819;48.030;14.710;2022-12-07T02:49:18;20.00;;;9.00;;
68025;SDS011;54819;48.030;14.710;2022-12-07T02:51:46;17.20;;;8.10;;
68025;SDS011;54819;48.030;14.710;2022-12-07T02:54:15;20.00;;;9.70;;
68025;SDS011;54819;48.030;14.710;2022-12-07T03:05:25;15.10;;;7.30;;
68025;SDS011;54819;48.030;14.710;2022-12-07T03:11:10;18.80;;;8.30;;
68025;SDS011;54819;48.030;14.710;2022-12-07T03:13:59;21.10;;;9.70;;
68025;SDS011;54819;48.030;14.710;2022-12-07T03:19:35;19.10;;;9.30;;
68025;SDS011;54819;48.030;14.710;2022-12-07T03:22:06;20.20;;;9.00;;
68025;SDS011;54819;48.030;14.710;2022-12-07T03:25:10;16.10;;;7.80;;
68025;SDS011;54819;48.030;14.710;2022-12-07T03:28:06;19.20;;;8.80;;
68025;SDS011;54819;48.030;14.710;2022-12-07T03:30:57;16.10;;;7.00;;
68025;SDS011;54819;48.030;14.710;2022-12-07T03:33:44;18.40;;;8.40;;
68025;SDS011;54819;48.030;14.710;2022-12-07T03:36:47;16.20;;;7.10;;
68025;SDS011;54819;48.030;14.710;2022-12-07T03:39:52;15.00;;;7.10;;
68025;SDS011;54819;48.030;14.710;2022-12-07T03:42:33;18.80;;;7.10;;
68025;SDS011;54819;48.030;14.710;2022-12-07T03:45:02;16.80;;;7.60;;
68025;SDS011;54819;48.030;14.710;2022-12-07T03:50:25;17.10;;;8.50;;
68025;SDS011;54819;48.030;14.710;2022-12-07T03:53:27;17.60;;;8.00;;
68025;SDS011;54819;48.030;14.710;2022-12-07T03:56:02;16.50;;;8.30;;
68025;SDS011;54819;48.030;14.710;2022-12-07T03:58:30;18.90;;;7.10;;
68025;SDS011;54819;48.030;14.710;2022-12-07T04:00:58;18.30;;;7.60;;
68025;SDS011;54819;48.030;14.710;2022-12-07T04:03:24;17.60;;;7.90;;
68025;SDS011;54819;48.030;14.710;2022-12-07T04:05:52;17.90;;;7.90;;
68025;SDS011;54819;48.030;14.710;2022-12-07T04:08:19;14.70;;;7.20;;
68025;SDS011;54819;48.030;14.710;2022-12-07T04:10:46;16.90;;;6.60;;
68025;SDS011;54819;48.030;14.710;2022-12-07T04:13:13;14.00;;;6.60;;
68025;SDS011;54819;48.030;14.710;2022-12-07T04:15:40;26.10;;;10.90;;
68025;SDS011;54819;48.030;14.710;2022-12-07T04:18:07;23.70;;;10.20;;
68025;SDS011;54819;48.030;14.710;2022-12-07T04:20:34;18.00;;;8.30;;
68025;SDS011;54819;48.030;14.710;2022-12-07T04:23:01;16.10;;;7.70;;
68025;SDS011;54819;48.030;14.710;2022-12-07T04:25:28;16.50;;;7.90;;
68025;SDS011;54819;48.030;14.710;2022-12-07T04:27:55;15.20;;;6.80;;
68025;SDS011;54819;48.030;14.710;2022-12-07T04:30:21;15.20;;;7.30;;
68025;SDS011;54819;48.030;14.710;2022-12-07T04:32:48;12.30;;;6.50;;
68025;SDS011;54819;48.030;14.710;2022-12-07T04:35:15;15.40;;;6.60;;
68025;SDS011;54819;48.030;14.710;2022-12-07T04:37:42;14.50;;;6.70;;
68025;SDS011;54819;48.030;14.710;2022-12-07T04:40:09;15.40;;;7.50;;
68025;SDS011;54819;48.030;14.710;2022-12-07T04:42:37;17.00;;;7.70;;
68025;SDS011;54819;48.030;14.710;2022-12-07T04:45:05;16.50;;;7.90;;
68025;SDS011;54819;48.030;14.710;2022-12-07T04:47:33;18.60;;;7.70;;
68025;SDS011;54819;48.030;14.710;2022-12-07T04:50:00;15.50;;;7.20;;
68025;SDS011;54819;48.030;14.710;2022-12-07T04:52:27;16.20;;;8.50;;
68025;SDS011;54819;48.030;14.710;2022-12-07T04:54:54;14.10;;;6.70;;
68025;SDS011;54819;48.030;14.710;2022-12-07T04:57:21;16.10;;;8.00;;
68025;SDS011;54819;48.030;14.710;2022-12-07T04:59:47;14.60;;;7.20;;
68025;SDS011;54819;48.030;14.710;2022-12-07T05:02:14;12.00;;;6.60;;
68025;SDS011;54819;48.030;14.710;2022-12-07T05:04:41;12.40;;;6.30;;
68025;SDS011;54819;48.030;14.710;2022-12-07T05:07:08;14.60;;;7.60;;
68025;SDS011;54819;48.030;14.710;2022-12-07T05:09:35;15.30;;;8.00;;
68025;SDS011;54819;48.030;14.710;2022-12-07T05:12:02;15.50;;;6.80;;
68025;SDS011;54819;48.030;14.710;2022-12-07T05:14:29;12.20;;;6.40;;
68025;SDS011;54819;48.030;14.710;2022-12-07T05:16:56;12.50;;;5.40;;
68025;SDS011;54819;48.030;14.710;2022-12-07T05:19:23;12.10;;;5.60;;
68025;SDS011;54819;48.030;14.710;2022-12-07T05:21:49;11.70;;;5.70;;
68025;SDS011;54819;48.030;14.710;2022-12-07T05:24:16;11.70;;;4.70;;
68025;SDS011;54819;48.030;14.710;2022-12-07T05:26:45;10.00;;;4.70;;
68025;SDS011;54819;48.030;14.710;2022-12-07T05:29:14;14.50;;;6.00;;
68025;SDS011;54819;48.030;14.710;2022-12-07T05:31:42;10.40;;;5.10;;
68025;SDS011;54819;48.030;14.710;2022-12-07T05:34:10;11.70;;;6.30;;
68025;SDS011;54819;48.030;14.710;2022-12-07T05:36:38;12.10;;;6.40;;
68025;SDS011;54819;48.030;14.710;2022-12-07T05:39:04;8.90;;;5.50;;
68025;SDS011;54819;48.030;14.710;2022-12-07T05:41:32;16.20;;;6.10;;
68025;SDS011;54819;48.030;14.710;2022-12-07T05:44:17;9.70;;;5.00;;
68025;SDS011;54819;48.030;14.710;2022-12-07T05:46:44;10.80;;;5.90;;
68025;SDS011;54819;48.030;14.710;2022-12-07T05:49:11;10.10;;;5.40;;
68025;SDS011;54819;48.030;14.710;2022-12-07T05:51:38;10.40;;;5.90;;
68025;SDS011;54819;48.030;14.710;2022-12-07T05:54:05;9.80;;;4.80;;
68025;SDS011;54819;48.030;14.710;2022-12-07T05:56:32;8.80;;;5.40;;
68025;SDS011;54819;48.030;14.710;2022-12-07T05:58:59;10.00;;;5.10;;
68025;SDS011;54819;48.030;14.710;2022-12-07T06:01:44;10.00;;;4.90;;
68025;SDS011;54819;48.030;14.710;2022-12-07T06:04:11;8.30;;;4.70;;
68025;SDS011;54819;48.030;14.710;2022-12-07T06:06:38;11.80;;;6.30;;
68025;SDS011;54819;48.030;14.710;2022-12-07T06:09:05;11.60;;;6.10;;
68025;SDS011;54819;48.030;14.710;2022-12-07T06:11:32;9.70;;;5.60;;
68025;SDS011;54819;48.030;14.710;2022-12-07T06:14:17;13.30;;;5.80;;
68025;SDS011;54819;48.030;14.710;2022-12-07T06:16:44;11.00;;;5.20;;
68025;SDS011;54819;48.030;14.710;2022-12-07T06:19:11;10.90;;;5.90;;
68025;SDS011;54819;48.030;14.710;2022-12-07T06:21:39;11.90;;;6.00;;
68025;SDS011;54819;48.030;14.710;2022-12-07T06:24:06;11.00;;;5.10;;
68025;SDS011;54819;48.030;14.710;2022-12-07T06:26:33;11.30;;;5.60;;
68025;SDS011;54819;48.030;14.710;2022-12-07T06:29:00;9.00;;;5.50;;
68025;SDS011;54819;48.030;14.710;2022-12-07T06:31:27;11.30;;;5.70;;
68025;SDS011;54819;48.030;14.710;2022-12-07T06:33:59;11.70;;;6.50;;
68025;SDS011;54819;48.030;14.710;2022-12-07T06:36:31;10.80;;;6.50;;
68025;SDS011;54819;48.030;14.710;2022-12-07T06:38:58;14.00;;;6.70;;
68025;SDS011;54819;48.030;14.710;2022-12-07T06:41:25;12.60;;;6.80;;
68025;SDS011;54819;48.030;14.710;2022-12-07T06:43:52;13.40;;;7.10;;
68025;SDS011;54819;48.030;14.710;2022-12-07T06:46:22;17.80;;;7.50;;
68025;SDS011;54819;48.030;14.710;2022-12-07T06:48:50;13.50;;;7.20;;
68025;SDS011;54819;48.030;14.710;2022-12-07T06:51:17;16.00;;;8.10;;
68025;SDS011;54819;48.030;14.710;2022-12-07T06:53:44;12.20;;;6.80;;
68025;SDS011;54819;48.030;14.710;2022-12-07T06:56:10;11.70;;;6.90;;
68025;SDS011;54819;48.030;14.710;2022-12-07T06:58:39;12.00;;;6.90;;
68025;SDS011;54819;48.030;14.710;2022-12-07T07:01:14;14.80;;;7.40;;
68025;SDS011;54819;48.030;14.710;2022-12-07T07:03:44;17.60;;;8.00;;
68025;SDS011;54819;48.030;14.710;2022-12-07T07:06:12;14.60;;;8.10;;
68025;SDS011;54819;48.030;14.710;2022-12-07T07:08:40;15.70;;;8.30;;
68025;SDS011;54819;48.030;14.710;2022-12-07T07:11:09;17.80;;;8.00;;
68025;SDS011;54819;48.030;14.710;2022-12-07T07:16:04;17.70;;;8.60;;
68025;SDS011;54819;48.030;14.710;2022-12-07T07:18:32;16.00;;;7.60;;
68025;SDS011;54819;48.030;14.710;2022-12-07T07:20:59;15.30;;;7.70;;
68025;SDS011;54819;48.030;14.710;2022-12-07T07:23:27;15.00;;;7.60;;
68025;SDS011;54819;48.030;14.710;2022-12-07T07:25:54;12.30;;;6.90;;
68025;SDS011;54819;48.030;14.710;2022-12-07T07:28:21;15.20;;;7.90;;
68025;SDS011;54819;48.030;14.710;2022-12-07T07:30:49;13.40;;;7.70;;
68025;SDS011;54819;48.030;14.710;2022-12-07T07:33:16;9.00;;;5.20;;
68025;SDS011;54819;48.030;14.710;2022-12-07T07:35:42;12.50;;;6.20;;
68025;SDS011;54819;48.030;14.710;2022-12-07T07:38:09;12.00;;;6.80;;
68025;SDS011;54819;48.030;14.710;2022-12-07T07:40:36;13.30;;;6.60;;
68025;SDS011;54819;48.030;14.710;2022-12-07T07:43:03;13.00;;;6.50;;
68025;SDS011;54819;48.030;14.710;2022-12-07T07:45:30;18.60;;;9.70;;
68025;SDS011;54819;48.030;14.710;2022-12-07T07:47:57;12.40;;;6.40;;
68025;SDS011;54819;48.030;14.710;2022-12-07T07:50:24;14.50;;;7.30;;
68025;SDS011;54819;48.030;14.710;2022-12-07T07:52:51;12.30;;;6.60;;
68025;SDS011;54819;48.030;14.710;2022-12-07T07:55:18;13.40;;;6.90;;
68025;SDS011;54819;48.030;14.710;2022-12-07T07:57:45;11.40;;;5.70;;
68025;SDS011;54819;48.030;14.710;2022-12-07T08:00:18;10.60;;;5.90;;
68025;SDS011;54819;48.030;14.710;2022-12-07T08:02:46;11.20;;;5.60;;
68025;SDS011;54819;48.030;14.710;2022-12-07T08:05:13;12.50;;;6.20;;
68025;SDS011;54819;48.030;14.710;2022-12-07T08:07:40;12.50;;;6.60;;
68025;SDS011;54819;48.030;14.710;2022-12-07T08:10:10;12.60;;;7.40;;
68025;SDS011;54819;48.030;14.710;2022-12-07T08:12:41;12.00;;;6.00;;
68025;SDS011;54819;48.030;14.710;2022-12-07T08:15:30;12.40;;;6.50;;
68025;SDS011;54819;48.030;14.710;2022-12-07T08:17:58;12.20;;;6.50;;
68025;SDS011;54819;48.030;14.710;2022-12-07T08:20:25;12.80;;;6.40;;
68025;SDS011;54819;48.030;14.710;2022-12-07T08:22:52;13.50;;;7.00;;
68025;SDS011;54819;48.030;14.710;2022-12-07T08:25:20;11.40;;;6.80;;
68025;SDS011;54819;48.030;14.710;2022-12-07T08:27:49;10.80;;;6.20;;
68025;SDS011;54819;48.030;14.710;2022-12-07T08:30:17;12.30;;;6.60;;
68025;SDS011;54819;48.030;14.710;2022-12-07T08:32:45;13.20;;;6.30;;
68025;SDS011;54819;48.030;14.710;2022-12-07T08:35:13;11.10;;;6.30;;
68025;SDS011;54819;48.030;14.710;2022-12-07T08:37:40;14.00;;;7.50;;
68025;SDS011;54819;48.030;14.710;2022-12-07T08:40:09;15.90;;;6.80;;
68025;SDS011;54819;48.030;14.710;2022-12-07T08:42:42;14.20;;;7.20;;
68025;SDS011;54819;48.030;14.710;2022-12-07T08:45:12;15.00;;;7.20;;
68025;SDS011;54819;48.030;14.710;2022-12-07T08:47:51;13.80;;;7.00;;
68025;SDS011;54819;48.030;14.710;2022-12-07T08:50:24;15.40;;;8.00;;
68025;SDS011;54819;48.030;14.710;2022-12-07T08:52:54;12.30;;;6.80;;
68025;SDS011;54819;48.030;14.710;2022-12-07T08:55:23;15.40;;;7.30;;
68025;SDS011;54819;48.030;14.710;2022-12-07T08:57:51;13.70;;;7.30;;
68025;SDS011;54819;48.030;14.710;2022-12-07T09:00:18;14.00;;;7.20;;
68025;SDS011;54819;48.030;14.710;2022-12-07T09:02:46;13.40;;;6.20;;
68025;SDS011;54819;48.030;14.710;2022-12-07T09:05:13;11.30;;;5.90;;
68025;SDS011;54819;48.030;14.710;2022-12-07T09:07:46;12.20;;;6.90;;
68025;SDS011;54819;48.030;14.710;2022-12-07T09:10:18;12.90;;;6.90;;
68025;SDS011;54819;48.030;14.710;2022-12-07T09:12:45;14.60;;;7.70;;
68025;SDS011;54819;48.030;14.710;2022-12-07T09:15:12;12.70;;;6.80;;
68025;SDS011;54819;48.030;14.710;2022-12-07T09:17:39;12.30;;;6.60;;
68025;SDS011;54819;48.030;14.710;2022-12-07T09:20:06;15.10;;;7.60;;
68025;SDS011;54819;48.030;14.710;2022-12-07T09:22:33;14.20;;;7.90;;
68025;SDS011;54819;48.030;14.710;2022-12-07T09:25:01;14.30;;;7.40;;
68025;SDS011;54819;48.030;14.710;2022-12-07T09:27:29;16.60;;;6.90;;
68025;SDS011;54819;48.030;14.710;2022-12-07T09:29:56;13.40;;;7.30;;
68025;SDS011;54819;48.030;14.710;2022-12-07T09:32:23;13.40;;;7.80;;
68025;SDS011;54819;48.030;14.710;2022-12-07T09:37:17;12.60;;;6.40;;
68025;SDS011;54819;48.030;14.710;2022-12-07T09:39:45;10.80;;;6.00;;
68025;SDS011;54819;48.030;14.710;2022-12-07T09:42:37;11.50;;;6.50;;
68025;SDS011;54819;48.030;14.710;2022-12-07T09:45:12;13.30;;;6.70;;
68025;SDS011;54819;48.030;14.710;2022-12-07T09:47:43;11.50;;;5.80;;
68025;SDS011;54819;48.030;14.710;2022-12-07T09:50:17;10.20;;;5.80;;
68025;SDS011;54819;48.030;14.710;2022-12-07T09:52:48;10.60;;;5.90;;
68025;SDS011;54819;48.030;14.710;2022-12-07T09:55:22;11.40;;;6.40;;
68025;SDS011;54819;48.030;14.710;2022-12-07T09:57:54;11.50;;;6.10;;
68025;SDS011;54819;48.030;14.710;2022-12-07T10:02:56;10.70;;;6.10;;
68025;SDS011;54819;48.030;14.710;2022-12-07T10:05:30;11.50;;;6.20;;
68025;SDS011;54819;48.030;14.710;2022-12-07T10:08:05;12.00;;;6.60;;
68025;SDS011;54819;48.030;14.710;2022-12-07T10:10:34;12.40;;;6.10;;
68025;SDS011;54819;48.030;14.710;2022-12-07T10:13:09;11.70;;;6.20;;
68025;SDS011;54819;48.030;14.710;2022-12-07T10:15:54;12.70;;;6.10;;
68025;SDS011;54819;48.030;14.710;2022-12-07T10:18:39;10.70;;;4.90;;
68025;SDS011;54819;48.030;14.710;2022-12-07T10:23:40;9.00;;;4.60;;
68025;SDS011;54819;48.030;14.710;2022-12-07T10:26:31;10.60;;;5.20;;
68025;SDS011;54819;48.030;14.710;2022-12-07T10:29:02;10.20;;;4.80;;
68025;SDS011;54819;48.030;14.710;2022-12-07T10:31:41;13.30;;;6.00;;
68025;SDS011;54819;48.030;14.710;2022-12-07T10:34:25;11.80;;;5.80;;
68025;SDS011;54819;48.030;14.710;2022-12-07T10:39:52;12.20;;;6.00;;
68025;SDS011;54819;48.030;14.710;2022-12-07T10:42:24;11.30;;;5.70;;
68025;SDS011;54819;48.030;14.710;2022-12-07T10:45:14;11.70;;;6.60;;
68025;SDS011;54819;48.030;14.710;2022-12-07T10:47:51;11.30;;;6.20;;
68025;SDS011;54819;48.030;14.710;2022-12-07T10:50:46;10.70;;;6.50;;
68025;SDS011;54819;48.030;14.710;2022-12-07T11:08:52;11.50;;;6.30;;
68025;SDS011;54819;48.030;14.710;2022-12-07T11:11:12;10.40;;;5.80;;
68025;SDS011;54819;48.030;14.710;2022-12-07T11:14:31;16.80;;;8.20;;
68025;SDS011;54819;48.030;14.710;2022-12-07T11:17:00;16.20;;;7.80;;
68025;SDS011;54819;48.030;14.710;2022-12-07T11:22:23;13.20;;;7.50;;
68025;SDS011;54819;48.030;14.710;2022-12-07T11:25:02;12.60;;;6.90;;
68025;SDS011;54819;48.030;14.710;2022-12-07T11:34:06;12.20;;;6.20;;
68025;SDS011;54819;48.030;14.710;2022-12-07T11:36:52;15.40;;;7.60;;
68025;SDS011;54819;48.030;14.710;2022-12-07T11:41:52;12.10;;;6.90;;
68025;SDS011;54819;48.030;14.710;2022-12-07T11:44:34;14.40;;;6.80;;
68025;SDS011;54819;48.030;14.710;2022-12-07T11:47:15;14.00;;;7.60;;
68025;SDS011;54819;48.030;14.710;2022-12-07T11:50:39;15.70;;;8.50;;
68025;SDS011;54819;48.030;14.710;2022-12-07T11:52:57;13.60;;;6.70;;
68025;SDS011;54819;48.030;14.710;2022-12-07T11:55:43;15.10;;;7.50;;
68025;SDS011;54819;48.030;14.710;2022-12-07T12:01:13;14.30;;;7.30;;
68025;SDS011;54819;48.030;14.710;2022-12-07T12:03:47;14.10;;;7.10;;
68025;SDS011;54819;48.030;14.710;2022-12-07T12:06:33;10.80;;;5.50;;
68025;SDS011;54819;48.030;14.710;2022-12-07T12:21:17;12.40;;;6.10;;
68025;SDS011;54819;48.030;14.710;2022-12-07T12:23:59;13.30;;;6.70;;
68025;SDS011;54819;48.030;14.710;2022-12-07T12:26:32;10.40;;;5.00;;
68025;SDS011;54819;48.030;14.710;2022-12-07T12:29:04;11.70;;;5.40;;
68025;SDS011;54819;48.030;14.710;2022-12-07T12:31:39;14.20;;;6.50;;
68025;SDS011;54819;48.030;14.710;2022-12-07T12:34:30;10.90;;;5.80;;
68025;SDS011;54819;48.030;14.710;2022-12-07T12:42:45;13.70;;;6.30;;
68025;SDS011;54819;48.030;14.710;2022-12-07T12:45:32;14.00;;;6.60;;
68025;SDS011;54819;48.030;14.710;2022-12-07T12:48:30;11.20;;;5.70;;
68025;SDS011;54819;48.030;14.710;2022-12-07T12:51:39;10.60;;;5.10;;
68025;SDS011;54819;48.030;14.710;2022-12-07T12:54:27;10.10;;;4.80;;
68025;SDS011;54819;48.030;14.710;2022-12-07T13:04:58;9.40;;;4.20;;
68025;SDS011;54819;48.030;14.710;2022-12-07T13:10:31;9.90;;;5.20;;
68025;SDS011;54819;48.030;14.710;2022-12-07T13:29:06;11.70;;;5.80;;
68025;SDS011;54819;48.030;14.710;2022-12-07T13:31:57;13.50;;;5.50;;
68025;SDS011;54819;48.030;14.710;2022-12-07T13:37:45;11.30;;;6.10;;
68025;SDS011;54819;48.030;14.710;2022-12-07T13:39:56;11.10;;;5.40;;
68025;SDS011;54819;48.030;14.710;2022-12-07T13:44:58;11.30;;;5.60;;
68025;SDS011;54819;48.030;14.710;2022-12-07T13:47:35;10.20;;;5.30;;
68025;SDS011;54819;48.030;14.710;2022-12-07T13:50:23;10.30;;;5.50;;
68025;SDS011;54819;48.030;14.710;2022-12-07T13:52:57;12.60;;;5.50;;
68025;SDS011;54819;48.030;14.710;2022-12-07T13:55:29;10.60;;;5.20;;
68025;SDS011;54819;48.030;14.710;2022-12-07T13:57:56;9.60;;;5.70;;
68025;SDS011;54819;48.030;14.710;2022-12-07T14:00:26;13.40;;;6.40;;
68025;SDS011;54819;48.030;14.710;2022-12-07T14:10:33;11.50;;;6.10;;
68025;SDS011;54819;48.030;14.710;2022-12-07T14:13:17;12.00;;;6.40;;
68025;SDS011;54819;48.030;14.710;2022-12-07T14:15:51;15.90;;;7.10;;
68025;SDS011;54819;48.030;14.710;2022-12-07T14:23:37;22.90;;;9.00;;
68025;SDS011;54819;48.030;14.710;2022-12-07T14:26:14;16.60;;;7.70;;
68025;SDS011;54819;48.030;14.710;2022-12-07T14:28:43;16.40;;;7.20;;
68025;SDS011;54819;48.030;14.710;2022-12-07T14:31:22;15.30;;;6.90;;
68025;SDS011;54819;48.030;14.710;2022-12-07T14:33:59;14.90;;;7.00;;
68025;SDS011;54819;48.030;14.710;2022-12-07T14:36:26;14.30;;;6.60;;
68025;SDS011;54819;48.030;14.710;2022-12-07T14:38:53;12.00;;;6.50;;
68025;SDS011;54819;48.030;14.710;2022-12-07T14:41:23;14.40;;;6.70;;
68025;SDS011;54819;48.030;14.710;2022-12-07T14:44:12;16.10;;;6.30;;
68025;SDS011;54819;48.030;14.710;2022-12-07T14:46:59;14.70;;;7.10;;
68025;SDS011;54819;48.030;14.710;2022-12-07T14:49:46;14.10;;;7.20;;
68025;SDS011;54819;48.030;14.710;2022-12-07T14:52:15;14.50;;;6.40;;
68025;SDS011;54819;48.030;14.710;2022-12-07T14:55:14;11.00;;;5.60;;
68025;SDS011;54819;48.030;14.710;2022-12-07T14:57:47;12.60;;;6.10;;
68025;SDS011;54819;48.030;14.710;2022-12-07T15:00:15;13.10;;;6.00;;
68025;SDS011;54819;48.030;14.710;2022-12-07T15:02:45;14.40;;;6.70;;
68025;SDS011;54819;48.030;14.710;2022-12-07T15:05:13;12.40;;;6.40;;
68025;SDS011;54819;48.030;14.710;2022-12-07T15:07:43;11.60;;;6.20;;
68025;SDS011;54819;48.030;14.710;2022-12-07T15:10:23;11.10;;;5.70;;
68025;SDS011;54819;48.030;14.710;2022-12-07T15:13:00;13.30;;;6.30;;
68025;SDS011;54819;48.030;14.710;2022-12-07T15:15:48;12.80;;;5.80;;
68025;SDS011;54819;48.030;14.710;2022-12-07T15:18:18;15.60;;;6.70;;
68025;SDS011;54819;48.030;14.710;2022-12-07T15:20:46;9.50;;;4.90;;
68025;SDS011;54819;48.030;14.710;2022-12-07T15:28:10;14.70;;;5.50;;
68025;SDS011;54819;48.030;14.710;2022-12-07T15:30:41;47.40;;;16.60;;
68025;SDS011;54819;48.030;14.710;2022-12-07T15:33:12;90.40;;;29.50;;
68025;SDS011;54819;48.030;14.710;2022-12-07T15:35:41;107.60;;;34.90;;
68025;SDS011;54819;48.030;14.710;2022-12-07T15:38:12;95.20;;;29.40;;
68025;SDS011;54819;48.030;14.710;2022-12-07T15:40:39;60.20;;;17.50;;
68025;SDS011;54819;48.030;14.710;2022-12-07T15:43:10;57.70;;;19.40;;
68025;SDS011;54819;48.030;14.710;2022-12-07T15:45:57;57.00;;;15.90;;
68025;SDS011;54819;48.030;14.710;2022-12-07T15:48:25;48.40;;;14.60;;
68025;SDS011;54819;48.030;14.710;2022-12-07T15:51:05;42.10;;;14.70;;
68025;SDS011;54819;48.030;14.710;2022-12-07T15:53:33;41.60;;;13.00;;
68025;SDS011;54819;48.030;14.710;2022-12-07T15:58:31;66.70;;;22.80;;
68025;SDS011;54819;48.030;14.710;2022-12-07T16:00:58;73.10;;;23.90;;
68025;SDS011;54819;48.030;14.710;2022-12-07T16:03:27;55.30;;;18.40;;
68025;SDS011;54819;48.030;14.710;2022-12-07T16:05:54;42.40;;;14.60;;
68025;SDS011;54819;48.030;14.710;2022-12-07T16:08:20;20.00;;;8.50;;
68025;SDS011;54819;48.030;14.710;2022-12-07T16:10:48;16.10;;;6.60;;
68025;SDS011;54819;48.030;14.710;2022-12-07T16:13:15;29.80;;;11.50;;
68025;SDS011;54819;48.030;14.710;2022-12-07T16:15:42;24.40;;;10.20;;
68025;SDS011;54819;48.030;14.710;2022-12-07T16:18:09;15.30;;;6.50;;
68025;SDS011;54819;48.030;14.710;2022-12-07T16:20:36;14.70;;;7.40;;
68025;SDS011;54819;48.030;14.710;2022-12-07T16:23:03;18.30;;;9.80;;
68025;SDS011;54819;48.030;14.710;2022-12-07T16:25:30;17.00;;;8.90;;
68025;SDS011;54819;48.030;14.710;2022-12-07T16:27:57;14.50;;;8.30;;
68025;SDS011;54819;48.030;14.710;2022-12-07T16:30:24;14.60;;;7.80;;
68025;SDS011;54819;48.030;14.710;2022-12-07T16:32:51;17.30;;;7.90;;
68025;SDS011;54819;48.030;14.710;2022-12-07T16:35:23;10.80;;;6.10;;
68025;SDS011;54819;48.030;14.710;2022-12-07T16:37:50;15.10;;;6.50;;
68025;SDS011;54819;48.030;14.710;2022-12-07T16:40:17;16.00;;;6.60;;
68025;SDS011;54819;48.030;14.710;2022-12-07T16:42:43;13.70;;;6.30;;
68025;SDS011;54819;48.030;14.710;2022-12-07T16:45:10;14.00;;;6.30;;
68025;SDS011;54819;48.030;14.710;2022-12-07T16:47:43;11.70;;;5.80;;
68025;SDS011;54819;48.030;14.710;2022-12-07T16:50:10;14.70;;;5.80;;
68025;SDS011;54819;48.030;14.710;2022-12-07T16:52:36;22.00;;;9.20;;
68025;SDS011;54819;48.030;14.710;2022-12-07T16:55:04;34.10;;;14.90;;
68025;SDS011;54819;48.030;14.710;2022-12-07T16:57:31;33.60;;;14.60;;
68025;SDS011;54819;48.030;14.710;2022-12-07T16:59:58;23.70;;;11.40;;
68025;SDS011;54819;48.030;14.710;2022-12-07T17:02:25;23.30;;;9.30;;
68025;SDS011;54819;48.030;14.710;2022-12-07T17:04:52;20.20;;;7.90;;
68025;SDS011;54819;48.030;14.710;2022-12-07T17:07:23;24.50;;;9.10;;
68025;SDS011;54819;48.030;14.710;2022-12-07T17:09:52;24.70;;;8.40;;
68025;SDS011;54819;48.030;14.710;2022-12-07T17:12:19;29.80;;;8.90;;
68025;SDS011;54819;48.030;14.710;2022-12-07T17:14:46;26.20;;;8.90;;